首页
METAR-TAF:

METAR-TAF

机场 :

清邁國際機場

清邁, 泰国

纬度: 18-47N, 经度: 098-59E, 海拔: 312米

当前天气观测

该预报发布于18分钟前的13:30 UTC
风速3节,风向北转西北
温度 26°C
湿度 94%
气压 1007 hPa
能见度10公里或以上
散云层高于3500英尺

METAR: VTCC 171330Z 33003KT 9999 SCT035 26/25 Q1007 NOSIG

时间: 20:48 (13:48 UTC)

预报

该预报发布于2小时和48分钟前的11:00 UTC
预报有效从17日的 12点(UTC)到 18日的 18点(UTC)
风速5节,风向西南
能见度10公里或以上
散云层高于3500英尺
短暂存在
从 17日的 14点(UTC)到 17日的 18点(UTC)
少量云层高于2500英尺, 积雨云.
多云层高于3000英尺
雷暴, 小雨
成为
从 17日的 19点(UTC)到 17日的 21点(UTC)
风速5节,风向
成为
从 18日的 01点(UTC)到 18日的 03点(UTC)
风速5节,风向南转西南
短暂存在
从 18日的 06点(UTC)到 18日的 12点(UTC)
风速15节,风向,有时为25节阵风
能見度: 4000
少量云层高于2500英尺, 积雨云.
多云层高于3000英尺
雷暴, 雨,

TAF: VTCC 171100Z 1712/1818 22005KT 9999 SCT035 TEMPO 1714/1718 -TSRA FEW025CB BKN030 BECMG 1719/1721 36005KT BECMG 1801/1803 20005KT TEMPO 1806/1812 18015G25KT 4000 TSRA FEW025CB BKN030

超过4000个机场的气象观测和天气预报(METAR&TAF报告)。

可查询的气象台以黄色和红色小点在地图上表示。

将鼠标移到小点上方,可查看气象台名称。

然后点击查看天气观测和预报。

如需切换地图:点击带黑十字的绿色按钮放大地图;点击带横线的绿色按钮缩小地图;或者点击绿色箭头查看邻近地区的地图。


METAR-TAF: